| time (UTC) | temp C | wind direction | speed KPH | gust KPH | rain 1hr cm | rain 24hr cm | rain mn cm | humidity % | barometer mb |
| 20260504001803 | 12 | 0 | 0.0 | 1.6 | 0.00 | 0.00 | 0.00 | 39 | 1015.1 |
| 20260504000903 | 13 | 0 | 0.0 | 1.6 | 0.00 | 0.00 | 0.00 | 39 | 1014.9 |
| 20260504000004 | 13 | 0 | 0.0 | 1.6 | 0.00 | 0.00 | 0.00 | 38 | 1014.8 |
| 20260503235403 | 13 | 0 | 0.0 | 1.6 | 0.00 | 0.00 | 0.00 | 39 | 1014.8 |
| 20260503234503 | 13 | 0 | 0.0 | 1.6 | 0.00 | 0.00 | 0.00 | 38 | 1014.8 |
| 20260503233603 | 14 | 0 | 0.0 | 1.6 | 0.00 | 0.00 | 0.00 | 37 | 1014.7 |
| 20260503232703 | 14 | 0 | 0.0 | 3.2 | 0.00 | 0.00 | 0.00 | 36 | 1014.6 |
| 20260503231803 | 15 | 0 | 0.0 | 3.2 | 0.00 | 0.00 | 0.00 | 35 | 1014.6 |
| 20260503230903 | 15 | 0 | 0.0 | 3.2 | 0.00 | 0.00 | 0.00 | 35 | 1014.5 |
| 20260503230003 | 15 | 0 | 0.0 | 3.2 | 0.00 | 0.00 | 0.00 | 34 | 1014.5 |
| 20260503225618 | 15 | 0 | 0.0 | 3.2 | 0.00 | 0.00 | 0.00 | 34 | 1014.6 |
| 20260503224503 | 16 | 265 | 1.6 | 3.2 | 0.00 | 0.00 | 0.00 | 33 | 1014.4 |
| 20260503223603 | 15 | 267 | 1.6 | 4.8 | 0.00 | 0.00 | 0.00 | 32 | 1014.5 |
| 20260503222703 | 16 | 0 | 0.0 | 6.4 | 0.00 | 0.00 | 0.00 | 32 | 1014.5 |
| 20260503222017 | 16 | 0 | 0.0 | 3.2 | 0.00 | 0.00 | 0.00 | 34 | 1014.5 |
| 20260503220903 | 16 | 258 | 1.6 | 6.4 | 0.00 | 0.00 | 0.00 | 33 | 1014.6 |
| 20260503220003 | 16 | 248 | 1.6 | 6.4 | 0.00 | 0.00 | 0.00 | 32 | 1014.6 |
| 20260503215403 | 16 | 201 | 1.6 | 8.0 | 0.00 | 0.00 | 0.00 | 32 | 1014.6 |
| 20260503214503 | 17 | 132 | 3.2 | 11.3 | 0.00 | 0.00 | 0.00 | 32 | 1014.5 |
| 20260503213818 | 17 | 145 | 1.6 | 8.0 | 0.00 | 0.00 | 0.00 | 29 | 1014.6 |
| 20260503212703 | 18 | 283 | 1.6 | 6.4 | 0.00 | 0.00 | 0.00 | 30 | 1014.5 |
| 20260503212018 | 17 | 323 | 1.6 | 8.0 | 0.00 | 0.00 | 0.00 | 29 | 1014.7 |
| 20260503210903 | 17 | 344 | 1.6 | 4.8 | 0.00 | 0.00 | 0.00 | 28 | 1014.7 |
| 20260503210217 | 17 | 178 | 1.6 | 4.8 | 0.00 | 0.00 | 0.00 | 28 | 1014.7 |
| 20260503205403 | 17 | 340 | 1.6 | 4.8 | 0.00 | 0.00 | 0.00 | 28 | 1014.8 |
| 20260503204503 | 17 | 307 | 3.2 | 6.4 | 0.00 | 0.00 | 0.00 | 29 | 1014.7 |
| 20260503203603 | 17 | 258 | 1.6 | 4.8 | 0.00 | 0.00 | 0.00 | 28 | 1014.6 |
| 20260503202921 | 17 | 321 | 1.6 | 4.8 | 0.00 | 0.00 | 0.00 | 30 | 1014.9 |
| 20260503201803 | 18 | 286 | 3.2 | 6.4 | 0.00 | 0.00 | 0.00 | 27 | 1014.9 |
| 20260503200903 | 19 | 1 | 1.6 | 6.4 | 0.00 | 0.00 | 0.00 | 26 | 1015.1 |
| 20260503200003 | 19 | 65 | 1.6 | 4.8 | 0.00 | 0.00 | 0.00 | 28 | 1015.0 |
| 20260503195620 | 18 | 257 | 1.6 | 8.0 | 0.00 | 0.00 | 0.00 | 29 | 1015.1 |
| 20260503194503 | 18 | 264 | 1.6 | 8.0 | 0.00 | 0.00 | 0.00 | 26 | 1015.2 |
| 20260503193603 | 18 | 240 | 1.6 | 6.4 | 0.00 | 0.00 | 0.00 | 29 | 1015.5 |
| 20260503192917 | 18 | 266 | 3.2 | 6.4 | 0.00 | 0.00 | 0.00 | 28 | 1015.5 |
| 20260503192019 | 18 | 278 | 3.2 | 8.0 | 0.00 | 0.00 | 0.00 | 28 | 1015.6 |
| 20260503191122 | 17 | 268 | 1.6 | 9.7 | 0.00 | 0.00 | 0.00 | 28 | 1015.7 |
| 20260503190219 | 18 | 233 | 1.6 | 4.8 | 0.00 | 0.00 | 0.00 | 26 | 1015.7 |
| 20260503185403 | 17 | 246 | 1.6 | 6.4 | 0.00 | 0.00 | 0.00 | 28 | 1015.7 |
| 20260503184503 | 18 | 127 | 1.6 | 4.8 | 0.00 | 0.00 | 0.00 | 27 | 1016.0 |
| 20260503183820 | 17 | 280 | 3.2 | 9.7 | 0.00 | 0.00 | 0.00 | 27 | 1016.1 |
| 20260503182704 | 17 | 260 | 1.6 | 6.4 | 0.00 | 0.00 | 0.00 | 27 | 1016.2 |
| 20260503181803 | 17 | 266 | 3.2 | 9.7 | 0.00 | 0.00 | 0.00 | 28 | 1016.1 |
| 20260503180903 | 17 | 261 | 3.2 | 9.7 | 0.00 | 0.00 | 0.00 | 28 | 1016.1 |
| 20260503180004 | 17 | 276 | 3.2 | 8.0 | 0.00 | 0.00 | 0.00 | 28 | 1016.2 |
| 20260503175403 | 17 | 312 | 3.2 | 9.7 | 0.00 | 0.00 | 0.00 | 28 | 1016.2 |
| 20260503174503 | 17 | 276 | 1.6 | 9.7 | 0.00 | 0.00 | 0.00 | 27 | 1016.4 |
| 20260503173603 | 17 | 298 | 1.6 | 6.4 | 0.00 | 0.00 | 0.00 | 31 | 1016.6 |
| 20260503172703 | 16 | 305 | 1.6 | 6.4 | 0.00 | 0.00 | 0.00 | 29 | 1016.7 |
| 20260503171803 | 17 | 270 | 1.6 | 8.0 | 0.00 | 0.00 | 0.00 | 31 | 1016.8 |
| 20260503170903 | 16 | 291 | 1.6 | 8.0 | 0.00 | 0.00 | 0.00 | 29 | 1016.7 |
| 20260503150903 | 12 | 273 | 3.2 | 8.0 | 0.00 | 0.00 | 0.00 | 43 | 1017.8 |
| 20260503150221 | 12 | 291 | 3.2 | 8.0 | 0.00 | 0.00 | 0.00 | 45 | 1017.8 |
| 20260503130903 | 6 | 0 | 0.0 | 6.4 | 0.00 | 0.00 | 0.00 | 61 | 1018.2 |
| 20260503120218 | 3 | 0 | 0.0 | 0.0 | 0.00 | 0.00 | 0.00 | 73 | 1017.9 |
| 20260503080903 | 3 | 0 | 0.0 | 0.0 | 0.00 | 0.00 | 0.00 | 76 | 1015.8 |
| 20260503072703 | 3 | 0 | 0.0 | 0.0 | 0.00 | 0.00 | 0.00 | 82 | 1015.5 |
| 20260503071803 | 3 | 0 | 0.0 | 0.0 | 0.00 | 0.00 | 0.00 | 82 | 1015.5 |
| 20260503070903 | 3 | 0 | 0.0 | 0.0 | 0.00 | 0.00 | 0.00 | 82 | 1015.4 |
| 20260503054503 | 3 | 0 | 0.0 | 0.0 | 0.00 | 0.00 | 0.00 | 79 | 1015.3 |
| 20260503053603 | 3 | 0 | 0.0 | 0.0 | 0.00 | 0.00 | 0.00 | 78 | 1015.4 |
| 20260503052703 | 3 | 0 | 0.0 | 0.0 | 0.00 | 0.00 | 0.00 | 77 | 1015.3 |
| 20260503052018 | 3 | 0 | 0.0 | 0.0 | 0.00 | 0.00 | 0.00 | 76 | 1015.2 |
| 20260503050903 | 3 | 0 | 0.0 | 0.0 | 0.00 | 0.00 | 0.00 | 75 | 1015.3 |
| 20260503050003 | 4 | 0 | 0.0 | 0.0 | 0.00 | 0.00 | 0.00 | 75 | 1015.3 |
| 20260503045403 | 4 | 0 | 0.0 | 0.0 | 0.00 | 0.00 | 0.00 | 74 | 1015.4 |
| 20260503044721 | 4 | 0 | 0.0 | 0.0 | 0.00 | 0.00 | 0.00 | 73 | 1015.4 |
| 20260503043603 | 5 | 0 | 0.0 | 0.0 | 0.00 | 0.00 | 0.00 | 72 | 1015.4 |
| 20260503042703 | 5 | 0 | 0.0 | 0.0 | 0.00 | 0.00 | 0.00 | 73 | 1015.6 |
| 20260503041803 | 5 | 0 | 0.0 | 0.0 | 0.00 | 0.00 | 0.00 | 72 | 1015.5 |
| 20260503040903 | 5 | 0 | 0.0 | 0.0 | 0.00 | 0.00 | 0.00 | 71 | 1015.4 |
| 20260503040004 | 5 | 0 | 0.0 | 0.0 | 0.00 | 0.00 | 0.00 | 70 | 1015.5 |
| 20260503035403 | 5 | 0 | 0.0 | 0.0 | 0.00 | 0.00 | 0.00 | 70 | 1015.5 |
| 20260503034503 | 5 | 0 | 0.0 | 0.0 | 0.00 | 0.00 | 0.00 | 68 | 1015.5 |
| 20260503033603 | 5 | 0 | 0.0 | 0.0 | 0.00 | 0.00 | 0.00 | 68 | 1015.4 |
| 20260503032703 | 6 | 0 | 0.0 | 0.0 | 0.00 | 0.00 | 0.00 | 66 | 1015.4 |
| 20260503031803 | 6 | 0 | 0.0 | 0.0 | 0.00 | 0.00 | 0.00 | 66 | 1015.5 |
| 20260503030903 | 6 | 0 | 0.0 | 0.0 | 0.00 | 0.00 | 0.00 | 64 | 1015.5 |
| 20260503030003 | 6 | 0 | 0.0 | 1.6 | 0.00 | 0.00 | 0.00 | 63 | 1015.6 |
| 20260503025403 | 6 | 0 | 0.0 | 1.6 | 0.00 | 0.00 | 0.00 | 62 | 1015.6 |
| 20260503024503 | 7 | 318 | 1.6 | 6.4 | 0.00 | 0.00 | 0.00 | 61 | 1015.6 |
| 20260503023820 | 7 | 296 | 1.6 | 4.8 | 0.00 | 0.00 | 0.00 | 61 | 1015.6 |
| 20260503022703 | 7 | 302 | 1.6 | 4.8 | 0.00 | 0.00 | 0.00 | 60 | 1015.7 |
| 20260503021803 | 7 | 211 | 1.6 | 8.0 | 0.00 | 0.00 | 0.00 | 59 | 1015.9 |
| 20260503020903 | 7 | 307 | 1.6 | 4.8 | 0.00 | 0.00 | 0.00 | 59 | 1015.7 |
| 20260503020003 | 7 | 349 | 1.6 | 6.4 | 0.00 | 0.00 | 0.00 | 60 | 1015.7 |
| 20260503015403 | 8 | 26 | 1.6 | 6.4 | 0.00 | 0.00 | 0.00 | 60 | 1015.7 |
| 20260503014503 | 8 | 0 | 0.0 | 8.0 | 0.00 | 0.00 | 0.00 | 61 | 1015.6 |
| 20260503013820 | 8 | 0 | 0.0 | 3.2 | 0.00 | 0.00 | 0.00 | 61 | 1015.5 |
| 20260503012703 | 8 | 0 | 0.0 | 4.8 | 0.00 | 0.00 | 0.00 | 60 | 1015.2 |
| 20260503011803 | 8 | 0 | 0.0 | 4.8 | 0.00 | 0.00 | 0.00 | 59 | 1015.2 |
| 20260503010903 | 8 | 0 | 0.0 | 3.2 | 0.00 | 0.00 | 0.00 | 58 | 1015.0 |
| 20260503010004 | 9 | 0 | 0.0 | 3.2 | 0.00 | 0.00 | 0.00 | 57 | 1014.9 |
| 20260503005403 | 9 | 0 | 0.0 | 1.6 | 0.00 | 0.00 | 0.00 | 56 | 1014.8 |
| 20260503004503 | 9 | 0 | 0.0 | 6.4 | 0.00 | 0.00 | 0.00 | 56 | 1014.7 |
| 20260503003821 | 10 | 0 | 0.0 | 3.2 | 0.00 | 0.00 | 0.00 | 55 | 1014.6 |
| 20260503002703 | 10 | 0 | 0.0 | 3.2 | 0.00 | 0.00 | 0.00 | 55 | 1014.4 |